createdAt,value
2022-11-14T00:01:06.979Z,66.23
2022-11-14T00:03:34.699Z,66.56
2022-11-14T00:06:06.577Z,67.18
2022-11-14T00:08:34.390Z,67.15
2022-11-14T00:11:02.101Z,67.37
2022-11-14T00:13:31.153Z,67.33
2022-11-14T00:15:58.880Z,67.77
2022-11-14T00:18:26.881Z,67.68
2022-11-14T00:20:55.086Z,67.60
2022-11-14T00:23:22.934Z,67.97
2022-11-14T00:25:50.665Z,68.00
2022-11-14T00:28:18.462Z,68.13
2022-11-14T00:30:49.441Z,67.73
2022-11-14T00:33:20.496Z,68.37
2022-11-14T00:35:53.121Z,68.65
2022-11-14T00:38:20.831Z,68.75
2022-11-14T00:40:48.561Z,69.16
2022-11-14T00:43:16.436Z,69.33
2022-11-14T00:45:45.362Z,69.49
2022-11-14T00:48:15.008Z,69.53
2022-11-14T00:50:43.704Z,69.69
2022-11-14T00:53:11.856Z,70.27
2022-11-14T00:55:39.570Z,70.13
2022-11-14T00:58:07.567Z,70.35
2022-11-14T01:00:35.791Z,70.83
2022-11-14T01:03:03.624Z,71.13
2022-11-14T01:05:32.752Z,71.14
2022-11-14T01:08:00.479Z,71.19
2022-11-14T01:10:28.230Z,71.33
2022-11-14T01:12:55.981Z,71.30
2022-11-14T01:15:23.725Z,71.57
2022-11-14T01:17:51.460Z,71.56
2022-11-14T01:20:19.309Z,71.57
2022-11-14T01:22:48.390Z,71.50
2022-11-14T01:25:16.260Z,71.61
2022-11-14T01:27:43.991Z,71.57
2022-11-14T01:30:12.969Z,71.45
2022-11-14T01:32:40.754Z,71.52
2022-11-14T01:35:09.267Z,71.60
2022-11-14T01:37:36.972Z,71.64
2022-11-14T01:40:09.170Z,71.82
2022-11-14T01:42:36.876Z,71.82
2022-11-14T01:45:37.747Z,71.58
2022-11-14T01:48:05.667Z,72.21
2022-11-14T01:50:33.446Z,71.92
2022-11-14T01:53:01.118Z,72.28
2022-11-14T01:55:35.548Z,72.32
2022-11-14T01:58:03.487Z,72.31
2022-11-14T02:00:35.969Z,72.54
2022-11-14T02:03:04.233Z,72.55
2022-11-14T02:05:32.746Z,72.39
2022-11-14T02:08:00.562Z,72.53
2022-11-14T02:10:32.631Z,72.71
2022-11-14T02:13:00.418Z,72.83
2022-11-14T02:15:28.094Z,72.53
2022-11-14T02:17:56.368Z,72.43
2022-11-14T02:20:28.645Z,72.36
2022-11-14T02:22:56.941Z,72.79
2022-11-14T02:25:24.818Z,72.49
2022-11-14T02:27:52.611Z,72.61
2022-11-14T02:30:23.068Z,72.59
2022-11-14T02:33:10.685Z,72.60
2022-11-14T02:35:39.804Z,72.76
2022-11-14T02:38:09.734Z,72.83
2022-11-14T02:40:37.414Z,72.93
2022-11-14T02:43:05.309Z,72.95
2022-11-14T02:45:33.303Z,73.42
2022-11-14T02:48:01.094Z,73.35
2022-11-14T02:50:29.486Z,73.58
2022-11-14T02:52:58.590Z,73.62
2022-11-14T02:55:26.270Z,73.39
2022-11-14T02:57:54.010Z,73.62
2022-11-14T03:00:21.739Z,73.56
2022-11-14T03:02:49.433Z,74.13
2022-11-14T03:05:17.188Z,73.68
2022-11-14T03:07:44.997Z,73.68
2022-11-14T03:10:14.144Z,73.68
2022-11-14T03:12:41.838Z,73.80
2022-11-14T03:15:10.896Z,73.52
2022-11-14T03:17:38.864Z,73.71
2022-11-14T03:20:07.703Z,73.38
2022-11-14T03:22:35.434Z,73.79
2022-11-14T03:25:03.204Z,73.70
2022-11-14T03:27:32.312Z,73.97
2022-11-14T03:30:00.621Z,73.95
2022-11-14T03:32:28.385Z,73.75
2022-11-14T03:34:56.129Z,73.73
2022-11-14T03:37:23.900Z,74.06
2022-11-14T03:39:51.649Z,73.60
2022-11-14T03:42:19.374Z,73.30
2022-11-14T03:44:48.528Z,73.57
2022-11-14T03:47:16.247Z,73.67
2022-11-14T03:49:47.184Z,73.74
2022-11-14T03:52:14.942Z,73.36
2022-11-14T03:54:42.677Z,73.79
2022-11-14T03:57:10.407Z,73.80
2022-11-14T03:59:38.094Z,73.95
2022-11-14T04:02:07.199Z,74.02
2022-11-14T04:04:34.925Z,74.25
2022-11-14T04:07:02.697Z,74.04
2022-11-14T04:09:30.522Z,74.12
2022-11-14T04:11:58.228Z,73.64
2022-11-14T04:14:25.981Z,73.65
2022-11-14T04:16:53.707Z,74.05
2022-11-14T04:19:22.810Z,74.28
2022-11-14T04:21:50.541Z,74.36
2022-11-14T04:24:18.276Z,74.33
2022-11-14T04:26:45.973Z,74.19
2022-11-14T04:29:13.714Z,74.41
2022-11-14T04:31:41.463Z,73.97
2022-11-14T04:34:09.349Z,74.36
2022-11-14T04:36:38.487Z,74.58
2022-11-14T04:39:06.454Z,74.46
2022-11-14T04:41:34.135Z,74.69
2022-11-14T04:44:02.103Z,74.74
2022-11-14T04:46:30.084Z,74.75
2022-11-14T04:48:57.789Z,75.09
2022-11-14T04:51:25.738Z,75.11
2022-11-14T04:53:54.848Z,75.30
2022-11-14T04:56:25.294Z,75.05
2022-11-14T04:58:53.217Z,75.01
2022-11-14T05:01:21.029Z,74.88
2022-11-14T05:03:48.843Z,74.72
2022-11-14T05:06:16.606Z,74.71
2022-11-14T05:08:44.339Z,74.90
2022-11-14T05:11:17.163Z,75.01
2022-11-14T05:13:45.045Z,75.06
2022-11-14T05:16:13.233Z,75.29
2022-11-14T05:18:45.875Z,75.30
2022-11-14T05:21:16.094Z,75.77
2022-11-14T05:23:43.772Z,75.49
2022-11-14T05:26:14.010Z,75.59
2022-11-14T05:28:43.202Z,75.83
2022-11-14T05:31:13.699Z,75.55
2022-11-14T05:33:41.447Z,75.32
2022-11-14T05:36:11.354Z,75.48
2022-11-14T05:38:39.361Z,75.58
2022-11-14T05:41:08.060Z,75.88
2022-11-14T05:43:36.298Z,75.69
2022-11-14T05:46:07.127Z,76.05
2022-11-14T05:48:34.857Z,76.00
2022-11-14T05:51:05.266Z,76.02
2022-11-14T05:53:35.387Z,75.87
2022-11-14T05:56:04.190Z,75.93
2022-11-14T05:58:32.906Z,75.86
2022-11-14T06:01:07.215Z,76.21
2022-11-14T06:03:35.818Z,76.46
2022-11-14T06:06:05.342Z,76.33
2022-11-14T06:08:33.645Z,76.15
2022-11-14T06:11:05.314Z,76.38
2022-11-14T06:13:33.774Z,76.71
2022-11-14T06:16:02.324Z,76.55
2022-11-14T06:18:32.542Z,76.77
2022-11-14T06:21:01.157Z,76.61
2022-11-14T06:23:28.967Z,76.74
2022-11-14T06:25:59.831Z,76.75
2022-11-14T06:28:27.904Z,76.68
2022-11-14T06:30:58.849Z,76.39
2022-11-14T06:33:28.728Z,76.63
2022-11-14T06:36:01.449Z,76.48
2022-11-14T06:38:31.845Z,76.40
2022-11-14T06:41:04.060Z,76.36
2022-11-14T06:43:34.056Z,76.35
2022-11-14T06:46:01.983Z,76.69
2022-11-14T06:48:30.553Z,76.46
2022-11-14T06:51:01.140Z,76.14
2022-11-14T06:53:30.455Z,76.27
2022-11-14T06:56:00.114Z,76.18
2022-11-14T06:58:29.062Z,76.59
2022-11-14T07:00:57.288Z,76.49
2022-11-14T07:03:25.132Z,76.56
2022-11-14T07:05:52.983Z,76.45
2022-11-14T07:08:30.086Z,76.73
2022-11-14T07:11:02.872Z,76.58
2022-11-14T07:13:31.246Z,76.54
2022-11-14T07:15:58.978Z,76.68
2022-11-14T07:18:27.183Z,76.62
2022-11-14T07:20:59.472Z,76.55
2022-11-14T07:23:29.353Z,76.45
2022-11-14T07:25:57.154Z,76.89
2022-11-14T07:28:24.909Z,76.35
2022-11-14T07:30:52.652Z,76.16
2022-11-14T07:33:20.376Z,76.27
2022-11-14T07:35:48.089Z,76.63
2022-11-14T07:38:15.807Z,76.75
2022-11-14T07:40:58.161Z,76.52
2022-11-14T07:43:27.792Z,76.76
2022-11-14T07:45:59.570Z,76.20
2022-11-14T07:48:27.419Z,76.34
2022-11-14T07:50:58.745Z,76.64
2022-11-14T07:53:26.533Z,76.22
2022-11-14T07:55:55.972Z,76.39
2022-11-14T07:58:23.938Z,76.54
2022-11-14T08:00:51.692Z,76.80
2022-11-14T08:03:19.453Z,76.56
2022-11-14T08:05:47.144Z,76.39
2022-11-14T08:08:14.813Z,77.08
2022-11-14T08:10:42.518Z,77.03
2022-11-14T08:16:01.046Z,76.87
2022-11-14T08:18:28.961Z,76.19
2022-11-14T08:20:57.637Z,76.42
2022-11-14T08:23:25.371Z,76.33
2022-11-14T08:25:53.420Z,76.51
2022-11-14T08:28:22.462Z,76.41
2022-11-14T08:30:50.153Z,76.81
2022-11-14T08:33:17.848Z,76.64
2022-11-14T08:35:48.369Z,76.14
2022-11-14T08:38:16.199Z,75.89
2022-11-14T08:40:44.002Z,75.81
2022-11-14T08:43:11.974Z,75.71
2022-11-14T08:45:41.034Z,75.42
2022-11-14T08:48:08.728Z,75.32
2022-11-14T08:50:36.467Z,75.05
2022-11-14T08:53:04.158Z,74.88
2022-11-14T08:55:31.838Z,74.91
2022-11-14T08:57:59.641Z,74.92
2022-11-14T09:00:27.591Z,74.62
2022-11-14T09:02:56.710Z,74.77
2022-11-14T09:05:24.495Z,74.74
2022-11-14T09:07:52.217Z,74.56
2022-11-14T09:10:19.966Z,74.47
2022-11-14T09:12:47.691Z,74.08
2022-11-14T09:15:15.390Z,73.94
2022-11-14T09:17:43.061Z,74.07
2022-11-14T09:20:12.229Z,73.65
2022-11-14T09:22:39.904Z,73.26
2022-11-14T09:25:09.356Z,73.24
2022-11-14T09:27:37.084Z,73.21
2022-11-14T09:30:06.279Z,73.64
2022-11-14T09:32:33.975Z,73.01
2022-11-14T09:35:01.744Z,72.84
2022-11-14T09:37:30.856Z,72.39
2022-11-14T09:39:58.559Z,72.46
2022-11-14T09:42:43.316Z,72.37
2022-11-14T09:45:14.539Z,72.32
2022-11-14T09:47:45.450Z,72.04
2022-11-14T09:50:15.945Z,71.93
2022-11-14T09:52:51.062Z,71.85
2022-11-14T09:55:20.921Z,71.59
2022-11-14T09:57:48.962Z,72.09
2022-11-14T10:00:19.047Z,71.41
2022-11-14T10:03:04.422Z,71.45
2022-11-14T10:05:43.218Z,71.28
2022-11-14T10:08:28.867Z,71.32
2022-11-14T10:10:59.439Z,71.62
2022-11-14T10:13:39.242Z,71.70
2022-11-14T10:16:15.296Z,71.26
2022-11-14T10:18:58.160Z,70.86
2022-11-14T10:21:39.895Z,70.34
2022-11-14T10:24:27.826Z,70.93
2022-11-14T10:27:02.961Z,70.45
2022-11-14T10:29:47.519Z,70.77
2022-11-14T10:32:21.892Z,70.81
2022-11-14T10:34:55.331Z,70.51
2022-11-14T10:37:28.021Z,70.42
2022-11-14T10:40:03.596Z,70.35
2022-11-14T10:42:36.360Z,70.45
2022-11-14T10:45:09.022Z,70.39
2022-11-14T10:47:41.122Z,70.94
2022-11-14T10:50:19.083Z,70.95
2022-11-14T10:52:48.898Z,71.05
2022-11-14T10:55:22.508Z,71.07
2022-11-14T10:57:55.676Z,71.38
2022-11-14T11:00:23.806Z,71.36
2022-11-14T11:02:54.755Z,71.55
2022-11-14T11:05:25.437Z,71.42
2022-11-14T11:08:36.287Z,71.25
2022-11-14T11:11:18.136Z,71.74
2022-11-14T11:13:54.417Z,71.34
2022-11-14T11:16:24.399Z,71.23
2022-11-14T11:18:52.795Z,71.36
2022-11-14T11:21:22.278Z,71.26
2022-11-14T11:23:52.103Z,70.74
2022-11-14T11:26:26.030Z,70.97
2022-11-14T11:29:05.637Z,71.46
2022-11-14T11:31:52.679Z,70.87
2022-11-14T11:34:25.465Z,71.09
2022-11-14T11:36:58.679Z,70.63
2022-11-14T11:39:30.754Z,70.53
2022-11-14T11:42:09.699Z,69.32
2022-11-14T11:44:45.273Z,69.51
2022-11-14T11:47:16.952Z,69.20
2022-11-14T11:49:53.031Z,69.13
2022-11-14T11:52:32.437Z,69.41
2022-11-14T11:55:04.660Z,69.05
2022-11-14T11:57:37.826Z,69.00
2022-11-14T12:00:08.682Z,69.38
2022-11-14T12:02:42.242Z,69.16
2022-11-14T12:05:16.457Z,69.34
2022-11-14T12:07:51.777Z,69.18
2022-11-14T12:10:24.250Z,68.96
2022-11-14T12:13:12.623Z,69.29
2022-11-14T12:15:52.493Z,68.93
2022-11-14T12:18:45.549Z,69.23
2022-11-14T12:21:19.922Z,69.32
2022-11-14T12:24:13.782Z,69.26
2022-11-14T12:26:54.767Z,69.27
2022-11-14T12:29:46.064Z,69.24
2022-11-14T12:32:31.161Z,68.99
2022-11-14T12:35:01.900Z,69.39
2022-11-14T12:37:34.084Z,69.05
2022-11-14T12:40:04.404Z,68.57
2022-11-14T12:42:33.278Z,69.11
2022-11-14T12:45:00.968Z,68.74
2022-11-14T12:47:30.215Z,67.87
2022-11-14T12:50:02.854Z,68.06
2022-11-14T12:52:48.725Z,68.33
2022-11-14T12:55:57.239Z,68.24
2022-11-14T12:58:47.740Z,67.93
2022-11-14T13:01:28.501Z,68.13
2022-11-14T13:04:13.329Z,68.28
2022-11-14T13:06:53.435Z,68.28
2022-11-14T13:09:36.485Z,68.25
2022-11-14T13:12:48.138Z,68.05
2022-11-14T13:16:05.084Z,67.58
2022-11-14T13:18:50.467Z,68.04
2022-11-14T13:21:43.974Z,67.53
2022-11-14T13:24:15.806Z,68.34
2022-11-14T13:26:48.789Z,68.26
2022-11-14T13:29:59.899Z,68.77
2022-11-14T13:33:07.637Z,68.81
2022-11-14T13:35:43.249Z,68.48
2022-11-14T13:38:39.645Z,68.66
2022-11-14T13:41:24.794Z,68.63
2022-11-14T13:44:05.777Z,68.98
2022-11-14T13:46:49.038Z,68.76
2022-11-14T13:49:33.857Z,68.62
2022-11-14T13:52:01.767Z,68.85
2022-11-14T13:54:31.130Z,68.75
2022-11-14T13:57:07.538Z,69.08
2022-11-14T14:00:02.484Z,68.88
2022-11-14T14:02:49.378Z,69.00
2022-11-14T14:05:26.062Z,68.76
2022-11-14T14:08:14.327Z,68.77
2022-11-14T14:10:59.105Z,69.05
2022-11-14T14:13:40.435Z,69.41
2022-11-14T14:16:18.537Z,69.49
2022-11-14T14:18:56.839Z,69.58
2022-11-14T14:21:37.430Z,69.87
2022-11-14T14:24:18.386Z,69.83
2022-11-14T14:27:00.344Z,69.57
2022-11-14T14:29:38.808Z,70.26
2022-11-14T14:32:17.702Z,69.73
2022-11-14T14:34:45.617Z,70.06
2022-11-14T14:37:20.996Z,69.70
2022-11-14T14:39:59.561Z,70.16
2022-11-14T14:42:35.359Z,69.89
2022-11-14T14:45:04.514Z,70.39
2022-11-14T14:47:40.398Z,70.58
2022-11-14T14:50:16.942Z,69.93
2022-11-14T14:52:44.655Z,70.49
2022-11-14T14:55:21.018Z,70.26
2022-11-14T14:57:50.222Z,70.24
2022-11-14T15:00:21.714Z,70.02
2022-11-14T15:02:50.890Z,70.32
2022-11-14T15:05:25.728Z,70.20
2022-11-14T15:07:56.330Z,70.27
2022-11-14T15:10:26.002Z,70.55
2022-11-14T15:12:55.705Z,70.80
2022-11-14T15:15:25.705Z,70.50
2022-11-14T15:17:55.176Z,69.96
2022-11-14T15:20:24.759Z,70.56
2022-11-14T15:23:07.501Z,70.54
2022-11-14T15:25:35.239Z,70.37
2022-11-14T15:28:07.461Z,70.25
2022-11-14T15:30:37.332Z,70.40
2022-11-14T15:33:07.508Z,70.57
2022-11-14T15:35:36.877Z,70.70
2022-11-14T15:38:36.865Z,70.57
2022-11-14T15:41:17.758Z,70.42
2022-11-14T15:43:53.108Z,71.06
2022-11-14T15:46:29.526Z,70.80
2022-11-14T15:48:57.345Z,70.86
2022-11-14T15:51:40.290Z,70.45
2022-11-14T15:54:22.362Z,70.82
2022-11-14T15:56:50.104Z,70.82
2022-11-14T15:59:19.521Z,71.06
2022-11-14T16:01:50.100Z,70.79
2022-11-14T16:04:20.021Z,71.00
2022-11-14T16:06:48.380Z,70.69
2022-11-14T16:09:18.047Z,70.99
2022-11-14T16:11:48.827Z,70.71
2022-11-14T16:14:16.827Z,71.13
2022-11-14T16:16:45.918Z,71.21
2022-11-14T16:19:16.059Z,71.12
2022-11-14T16:21:44.587Z,71.12
2022-11-14T16:24:17.146Z,70.87
2022-11-14T16:26:45.118Z,70.73
2022-11-14T16:29:12.947Z,71.25
2022-11-14T16:31:41.290Z,71.35
2022-11-14T16:34:15.077Z,71.10
2022-11-14T16:36:45.213Z,71.15
2022-11-14T16:39:13.651Z,71.24
2022-11-14T16:41:41.378Z,71.13
2022-11-14T16:44:14.469Z,70.96
2022-11-14T16:46:42.229Z,71.26
2022-11-14T16:49:14.265Z,71.18
2022-11-14T16:51:50.318Z,71.56
2022-11-14T16:54:19.497Z,71.19
2022-11-14T16:56:47.511Z,71.15
2022-11-14T16:59:15.449Z,71.32
2022-11-14T17:01:43.738Z,71.39
2022-11-14T17:04:12.894Z,71.49
2022-11-14T17:06:40.792Z,71.19
2022-11-14T17:09:08.544Z,70.90
2022-11-14T17:11:36.210Z,71.25
2022-11-14T17:14:03.925Z,71.28
2022-11-14T17:16:31.724Z,71.28
2022-11-14T17:18:59.538Z,71.34
2022-11-14T17:21:28.772Z,71.81
2022-11-14T17:23:57.076Z,71.40
2022-11-14T17:26:28.044Z,71.82
2022-11-14T17:28:57.811Z,71.88
2022-11-14T17:31:25.490Z,71.72
2022-11-14T17:33:54.205Z,71.51
2022-11-14T17:36:23.459Z,72.03
2022-11-14T17:38:52.807Z,71.99
2022-11-14T17:41:20.845Z,72.23
2022-11-14T17:43:52.487Z,71.96
2022-11-14T17:46:20.195Z,71.84
2022-11-14T17:48:48.195Z,71.96
2022-11-14T17:51:17.228Z,72.21
2022-11-14T17:53:45.018Z,72.16
2022-11-14T17:56:16.228Z,72.11
2022-11-14T17:58:44.649Z,72.06
2022-11-14T18:01:13.319Z,72.45
2022-11-14T18:03:41.153Z,72.33
2022-11-14T18:06:10.004Z,72.08
2022-11-14T18:08:38.142Z,72.08
2022-11-14T18:11:07.789Z,72.01
2022-11-14T18:13:36.966Z,72.11
2022-11-14T18:16:05.949Z,72.07
2022-11-14T18:18:34.292Z,72.42
2022-11-14T18:21:07.886Z,72.67
2022-11-14T18:23:36.310Z,72.63
2022-11-14T18:26:10.190Z,72.32
2022-11-14T18:28:39.687Z,72.31
2022-11-14T18:31:10.722Z,72.49
2022-11-14T18:33:38.977Z,72.55
2022-11-14T18:36:09.310Z,72.43
2022-11-14T18:38:37.571Z,72.72
2022-11-14T18:41:09.117Z,72.84
2022-11-14T18:43:36.833Z,72.64
2022-11-14T18:46:11.143Z,72.65
2022-11-14T18:48:40.718Z,72.66
2022-11-14T18:51:13.194Z,72.80
2022-11-14T18:53:40.811Z,72.55
2022-11-14T18:56:10.934Z,72.48
2022-11-14T18:58:39.783Z,72.50
2022-11-14T19:01:13.493Z,72.78
2022-11-14T19:03:41.512Z,72.54
2022-11-14T19:06:11.183Z,73.15
2022-11-14T19:08:39.626Z,72.65
2022-11-14T19:11:09.132Z,72.82
2022-11-14T19:13:36.889Z,72.78
2022-11-14T19:16:06.238Z,73.06
2022-11-14T19:18:35.304Z,72.59
2022-11-14T19:21:04.650Z,72.95
2022-11-14T19:23:32.838Z,72.88
2022-11-14T19:26:01.679Z,72.93
2022-11-14T19:28:30.320Z,72.40
2022-11-14T19:31:02.073Z,72.27
2022-11-14T19:33:30.073Z,72.24
2022-11-14T19:35:59.653Z,72.32
2022-11-14T19:38:27.431Z,72.56
2022-11-14T19:40:55.175Z,72.41
2022-11-14T19:43:25.310Z,72.29
2022-11-14T19:45:53.091Z,72.82
2022-11-14T19:48:20.847Z,72.23
2022-11-14T19:50:48.676Z,72.87
2022-11-14T19:53:17.740Z,72.92
2022-11-14T19:55:45.435Z,72.90
2022-11-14T19:58:13.110Z,73.27
2022-11-14T20:00:40.815Z,73.40
2022-11-14T20:03:08.527Z,73.61
2022-11-14T20:05:36.344Z,73.56
2022-11-14T20:08:04.154Z,73.55
2022-11-14T20:10:47.515Z,73.33
2022-11-14T20:13:15.684Z,73.70
2022-11-14T20:15:43.554Z,73.66
2022-11-14T20:18:14.455Z,73.94
2022-11-14T20:20:42.459Z,74.03
2022-11-14T20:23:10.881Z,73.19
2022-11-14T20:25:40.851Z,73.88
2022-11-14T20:28:09.207Z,73.92
2022-11-14T20:30:43.254Z,73.79
2022-11-14T20:33:11.321Z,74.09
2022-11-14T20:35:39.380Z,74.19
2022-11-14T20:38:07.683Z,74.44
2022-11-14T20:40:35.714Z,74.50
2022-11-14T20:43:04.881Z,74.31
2022-11-14T20:45:32.688Z,74.01
2022-11-14T20:48:00.437Z,73.73
2022-11-14T20:50:28.369Z,74.15
2022-11-14T20:52:56.166Z,73.86
2022-11-14T20:55:23.909Z,73.73
2022-11-14T20:57:51.697Z,73.54
2022-11-14T21:00:21.427Z,74.04
2022-11-14T21:02:49.965Z,73.69
2022-11-14T21:05:17.870Z,73.15
2022-11-14T21:07:45.600Z,73.43
2022-11-14T21:10:30.673Z,73.63
2022-11-14T21:13:12.168Z,73.63
2022-11-14T21:15:41.152Z,73.53
2022-11-14T21:18:08.888Z,74.17
2022-11-14T21:20:36.774Z,73.67
2022-11-14T21:23:04.513Z,74.23
2022-11-14T21:25:32.183Z,74.24
2022-11-14T21:27:59.830Z,73.82
2022-11-14T21:30:27.584Z,74.26
2022-11-14T21:32:56.605Z,73.83
2022-11-14T21:35:24.404Z,74.10
2022-11-14T21:37:52.007Z,74.34
2022-11-14T21:40:19.679Z,74.14
2022-11-14T21:42:47.381Z,74.03
2022-11-14T21:45:15.711Z,73.79
2022-11-14T21:47:43.400Z,74.00
2022-11-14T21:50:12.603Z,73.93
2022-11-14T21:52:40.233Z,74.22
2022-11-14T21:55:08.740Z,74.07
2022-11-14T21:57:36.456Z,73.87
2022-11-14T22:00:04.375Z,73.84
2022-11-14T22:02:49.426Z,74.13
2022-11-14T22:05:18.475Z,73.65
2022-11-14T22:07:46.138Z,74.34
2022-11-14T22:10:13.773Z,73.73
2022-11-14T22:12:41.571Z,74.20
2022-11-14T22:15:09.949Z,74.00
2022-11-14T22:17:37.642Z,74.17
2022-11-14T22:20:06.090Z,74.54
2022-11-14T22:22:35.181Z,74.27
2022-11-14T22:25:02.878Z,74.05
2022-11-14T22:27:30.527Z,74.16
2022-11-14T22:29:58.224Z,74.03
2022-11-14T22:32:28.158Z,73.95
2022-11-14T22:34:55.858Z,74.38
2022-11-14T22:37:23.541Z,74.62
2022-11-14T22:39:52.559Z,74.58
2022-11-14T22:42:20.214Z,74.64
2022-11-14T22:44:47.874Z,74.37
2022-11-14T22:47:15.564Z,74.58
2022-11-14T22:49:43.202Z,74.46
2022-11-14T22:52:10.881Z,74.56
2022-11-14T22:54:38.534Z,74.74
2022-11-14T22:57:07.589Z,74.86
2022-11-14T22:59:35.213Z,74.81
2022-11-14T23:02:02.848Z,75.00
2022-11-14T23:04:30.485Z,74.66
2022-11-14T23:06:58.150Z,75.15
2022-11-14T23:09:27.126Z,75.34
2022-11-14T23:11:54.778Z,75.23
2022-11-14T23:14:23.816Z,75.33
2022-11-14T23:16:51.492Z,74.57
2022-11-14T23:19:19.163Z,74.97
2022-11-14T23:21:46.836Z,75.02
2022-11-14T23:24:15.529Z,75.62
2022-11-14T23:26:43.191Z,75.35
2022-11-14T23:29:13.846Z,75.78
2022-11-14T23:31:42.892Z,75.50
2022-11-14T23:34:10.529Z,75.66
2022-11-14T23:36:38.203Z,75.57
2022-11-14T23:39:05.923Z,76.11
2022-11-14T23:41:33.620Z,76.09
2022-11-14T23:44:01.261Z,75.94
2022-11-14T23:46:28.912Z,76.40
2022-11-14T23:48:59.982Z,76.30
2022-11-14T23:51:27.649Z,76.76
2022-11-14T23:53:55.365Z,76.69
2022-11-14T23:56:23.024Z,77.16
2022-11-14T23:58:52.804Z,77.34
